Time;durP1;ratioP1;P1;durP2;ratioP2;P2;SDS_P1;SDS_P2;PMS_P1;PMS_P2;Temp;Humidity;BMP_temperature;BMP_pressure;BME280_temperature;BME280_humidity;BME280_pressure;Samples;Min_cycle;Max_cycle;Signal;HPM_P1;HPM_P2
2022/03/25 00:00:27;;;;;;;46.10;25.00;;;;;;;0.66;65.10;101584.11;84665;1330;22605;-77
2022/03/25 00:02:52;;;;;;;46.80;25.00;;;;;;;0.62;65.14;101585.75;83981;1328;1003603;-77
2022/03/25 00:05:00;;;;;;;43.90;25.00;;;;;;;0.60;65.31;101589.13;84681;1329;22602;-73
2022/03/25 00:07:09;;;;;;;48.00;26.00;;;;;;;0.56;65.46;101588.36;83973;1329;1002982;-73
2022/03/25 00:09:20;;;;;;;49.80;27.70;;;;;;;0.52;65.52;101585.86;84655;1329;22588;-73
2022/03/25 00:11:30;;;;;;;41.60;25.50;;;;;;;0.47;65.61;101587.83;84680;1330;22597;-73
2022/03/25 00:13:39;;;;;;;51.00;25.60;;;;;;;0.42;65.60;101587.00;84689;1329;23058;-77
2022/03/25 00:15:50;;;;;;;50.90;26.70;;;;;;;0.35;65.76;101586.52;84682;1329;22714;-78
2022/03/25 00:17:58;;;;;;;43.70;26.00;;;;;;;0.31;65.83;101590.02;84675;1330;25469;-76
2022/03/25 00:20:09;;;;;;;48.60;24.90;;;;;;;0.27;66.01;101590.60;84670;1330;25431;-79
2022/03/25 00:22:21;;;;;;;47.80;25.30;;;;;;;0.24;66.15;101593.11;84684;1330;22758;-77
2022/03/25 00:24:29;;;;;;;42.10;23.60;;;;;;;0.21;66.10;101585.84;84715;1329;22600;-79
2022/03/25 00:26:40;;;;;;;45.10;24.50;;;;;;;0.20;66.28;101586.00;84681;1328;22803;-78
2022/03/25 00:28:49;;;;;;;44.20;24.60;;;;;;;0.19;66.63;101583.21;84648;1329;22906;-78
2022/03/25 00:31:00;;;;;;;45.80;25.90;;;;;;;0.19;66.59;101583.89;84693;1332;22589;-78
2022/03/25 00:33:09;;;;;;;43.70;25.80;;;;;;;0.21;66.66;101586.54;84688;1328;22586;-76
2022/03/25 00:35:17;;;;;;;44.30;25.80;;;;;;;0.21;66.66;101586.70;84676;1328;22651;-77
2022/03/25 00:37:28;;;;;;;52.30;27.50;;;;;;;0.18;66.72;101584.23;84680;1328;25258;-77
2022/03/25 00:39:36;;;;;;;51.20;28.40;;;;;;;0.15;66.78;101581.92;84716;1332;23003;-72
2022/03/25 00:41:44;;;;;;;45.50;26.70;;;;;;;0.12;66.90;101579.28;84688;1331;22607;-73
2022/03/25 00:43:56;;;;;;;52.20;28.70;;;;;;;0.08;67.01;101574.23;84684;1329;22609;-73
2022/03/25 00:46:05;;;;;;;53.50;27.80;;;;;;;0.06;66.91;101576.05;83899;1329;1003179;-74
2022/03/25 00:48:17;;;;;;;53.10;28.40;;;;;;;0.04;66.90;101574.80;84677;1328;22670;-78
2022/03/25 00:50:25;;;;;;;52.90;28.10;;;;;;;-0.00;66.96;101577.26;84572;1331;25348;-77
2022/03/25 00:52:36;;;;;;;50.80;29.10;;;;;;;-0.05;66.97;101574.40;84659;1329;22608;-78
2022/03/25 00:54:48;;;;;;;46.40;27.00;;;;;;;-0.08;67.19;101574.34;84682;1324;22707;-77
2022/03/25 00:56:56;;;;;;;49.60;26.40;;;;;;;-0.11;67.43;101569.80;84696;1329;22653;-78
2022/03/25 00:59:09;;;;;;;50.00;27.80;;;;;;;-0.15;67.48;101570.39;84606;1329;24342;-78
2022/03/25 01:01:20;;;;;;;44.80;26.60;;;;;;;-0.16;67.63;101568.80;84663;1332;22597;-79
2022/03/25 01:03:32;;;;;;;47.30;26.10;;;;;;;-0.14;67.70;101573.31;84669;1328;25602;-73
2022/03/25 01:06:01;;;;;;;55.00;28.50;;;;;;;-0.12;67.85;101567.54;84680;1324;22716;-73
2022/03/25 01:08:14;;;;;;;52.60;28.30;;;;;;;-0.10;67.80;101562.96;84497;1333;22607;-74
2022/03/25 01:10:23;;;;;;;47.50;28.10;;;;;;;-0.09;67.92;101565.90;84568;1333;22851;-73
2022/03/25 01:12:31;;;;;;;53.00;27.20;;;;;;;-0.13;67.74;101567.69;84568;1329;22715;-72
2022/03/25 01:14:40;;;;;;;51.30;28.40;;;;;;;-0.17;67.72;101570.49;84529;1335;22837;-73
2022/03/25 01:16:51;;;;;;;45.40;27.10;;;;;;;-0.22;67.86;101568.65;84552;1332;22593;-75
2022/03/25 01:19:00;;;;;;;52.50;27.80;;;;;;;-0.28;68.07;101570.57;84561;1332;23042;-78
2022/03/25 01:21:09;;;;;;;56.70;29.40;;;;;;;-0.31;67.97;101569.14;84536;1331;22760;-78
2022/03/25 01:24:45;;;;;;;50.30;28.10;;;;;;;-0.37;68.22;101568.80;83631;1339;1003144;-73
2022/03/25 01:26:54;;;;;;;51.60;26.10;;;;;;;-0.47;68.21;101567.84;84310;1339;24243;-73
2022/03/25 01:29:24;;;;;;;46.50;26.50;;;;;;;-0.51;68.30;101568.95;84359;1335;22606;-73
2022/03/25 01:32:22;;;;;;;46.50;26.60;;;;;;;-0.52;68.64;101569.45;84341;1335;22609;-72
2022/03/25 01:34:42;;;;;;;51.60;29.70;;;;;;;-0.49;68.63;101565.56;84317;1338;23351;-78
2022/03/25 01:37:11;;;;;;;55.10;29.90;;;;;;;-0.47;68.60;101569.91;84334;1336;22936;-77
2022/03/25 01:39:19;;;;;;;46.50;28.10;;;;;;;-0.50;68.78;101571.55;84224;1338;22629;-77
2022/03/25 01:41:48;;;;;;;52.30;29.80;;;;;;;-0.51;68.84;101569.44;84177;1339;24257;-78
2022/03/25 01:44:02;;;;;;;53.20;30.00;;;;;;;-0.55;68.96;101577.24;84288;1339;25422;-72
2022/03/25 01:46:11;;;;;;;56.10;29.90;;;;;;;-0.58;68.91;101575.45;84186;1338;23153;-72
2022/03/25 01:48:20;;;;;;;53.10;29.60;;;;;;;-0.61;68.98;101575.90;84164;1339;22684;-78
2022/03/25 01:50:29;;;;;;;61.20;31.60;;;;;;;-0.64;68.78;101574.43;84252;1337;22602;-78
2022/03/25 01:53:03;;;;;;;52.80;30.00;;;;;;;-0.66;68.78;101572.64;84178;1335;26050;-78
2022/03/25 01:55:56;;;;;;;46.60;26.80;;;;;;;-0.68;68.97;101571.74;83751;1337;22712;-79
2022/03/25 01:58:07;;;;;;;48.30;27.20;;;;;;;-0.70;69.04;101572.36;82766;1347;1003139;-72
2022/03/25 02:00:21;;;;;;;52.40;27.30;;;;;;;-0.72;69.27;101572.48;84280;1337;25495;-71
2022/03/25 02:02:53;;;;;;;45.70;26.80;;;;;;;-0.74;69.29;101572.95;84450;1331;22637;-74
2022/03/25 02:05:01;;;;;;;52.90;27.90;;;;;;;-0.75;69.42;101573.77;84542;1334;22929;-73
2022/03/25 02:07:12;;;;;;;55.80;29.70;;;;;;;-0.75;69.53;101571.38;83758;1332;1003107;-73
2022/03/25 02:09:22;;;;;;;49.30;26.20;;;;;;;-0.74;69.56;101571.92;84584;1331;22590;-77
2022/03/25 02:11:30;;;;;;;52.70;26.20;;;;;;;-0.75;69.53;101568.12;84589;1330;22626;-78
2022/03/25 02:13:39;;;;;;;52.50;25.10;;;;;;;-0.75;69.57;101568.11;84720;1325;22651;-73
2022/03/25 02:15:48;;;;;;;53.20;30.10;;;;;;;-0.79;69.65;101569.74;84697;1330;23933;-73
2022/03/25 02:18:06;;;;;;;45.00;27.00;;;;;;;-0.82;69.67;101569.99;84656;1330;24358;-73
2022/03/25 02:20:35;;;;;;;56.40;29.30;;;;;;;-0.84;69.77;101571.64;84010;1330;1015841;-77
2022/03/25 02:23:10;;;;;;;49.90;27.60;;;;;;;-0.89;69.92;101574.41;84623;1328;22581;-73
2022/03/25 02:25:20;;;;;;;57.40;28.10;;;;;;;-0.91;69.98;101574.19;84675;1330;25456;-73
2022/03/25 02:27:28;;;;;;;54.60;29.90;;;;;;;-0.94;70.12;101580.64;84666;1331;22583;-74
2022/03/25 02:29:38;;;;;;;55.00;28.90;;;;;;;-0.97;70.23;101574.03;84691;1328;22611;-78
2022/03/25 02:31:50;;;;;;;54.20;29.60;;;;;;;-0.99;70.16;101574.67;84640;1333;25328;-78
2022/03/25 02:34:54;;;;;;;54.00;29.40;;;;;;;-1.01;70.35;101576.48;84667;1329;23942;-74
2022/03/25 02:37:04;;;;;;;54.80;30.90;;;;;;;-1.01;70.50;101580.59;84614;1324;24538;-73
2022/03/25 02:39:17;;;;;;;53.80;29.10;;;;;;;-0.98;70.53;101576.42;84690;1328;23952;-79
2022/03/25 02:41:56;;;;;;;48.90;28.80;;;;;;;-0.97;70.42;101582.27;84389;1331;22618;-78
2022/03/25 02:44:09;;;;;;;47.50;28.30;;;;;;;-0.97;70.52;101583.29;84604;1329;22677;-79
2022/03/25 02:46:18;;;;;;;51.30;29.00;;;;;;;-1.00;70.59;101584.56;84610;1330;25278;-78
2022/03/25 02:48:27;;;;;;;50.80;29.10;;;;;;;-1.05;70.51;101586.30;84653;1329;22909;-78
2022/03/25 02:50:35;;;;;;;52.50;29.40;;;;;;;-1.08;70.47;101590.15;84675;1330;22738;-78
2022/03/25 02:52:44;;;;;;;56.00;30.50;;;;;;;-1.11;70.58;101592.14;84623;1333;22671;-78
2022/03/25 02:54:52;;;;;;;54.10;30.00;;;;;;;-1.12;70.57;101591.75;84607;1332;22629;-80
2022/03/25 02:57:01;;;;;;;55.70;29.70;;;;;;;-1.14;70.55;101596.14;84684;1329;22610;-77
2022/03/25 02:59:13;;;;;;;54.50;28.70;;;;;;;-1.16;70.56;101597.80;84683;1328;25435;-74
2022/03/25 03:01:24;;;;;;;45.30;26.40;;;;;;;-1.16;70.45;101597.11;84605;1329;22728;-73
2022/03/25 03:03:32;;;;;;;55.60;29.10;;;;;;;-1.16;70.60;101598.31;84607;1333;22609;-73
2022/03/25 03:05:45;;;;;;;49.30;27.50;;;;;;;-1.15;70.63;101597.48;84680;1324;22827;-73
2022/03/25 03:07:54;;;;;;;49.30;25.50;;;;;;;-1.14;70.69;101600.25;84654;1329;22620;-74
2022/03/25 03:10:02;;;;;;;48.00;26.60;;;;;;;-1.13;70.82;101603.86;84687;1330;25347;-74
2022/03/25 03:12:12;;;;;;;47.40;26.20;;;;;;;-1.13;70.82;101605.59;84622;1324;22605;-73
2022/03/25 03:14:22;;;;;;;53.30;26.80;;;;;;;-1.14;70.87;101604.02;84692;1329;22609;-72
2022/03/25 03:16:30;;;;;;;50.30;25.40;;;;;;;-1.16;70.87;101601.04;84686;1329;22598;-73
2022/03/25 03:18:39;;;;;;;47.80;26.30;;;;;;;-1.19;70.89;101603.89;84648;1328;22585;-77
2022/03/25 03:20:48;;;;;;;43.90;24.50;;;;;;;-1.19;70.85;101604.91;84671;1332;22589;-77
2022/03/25 03:22:57;;;;;;;47.00;26.30;;;;;;;-1.19;70.79;101603.52;84657;1328;22628;-77
2022/03/25 03:25:07;;;;;;;46.30;25.30;;;;;;;-1.24;70.77;101603.73;84664;1331;26550;-77
2022/03/25 03:27:16;;;;;;;48.70;26.20;;;;;;;-1.29;70.83;101606.48;84608;1333;22667;-77
2022/03/25 03:29:27;;;;;;;47.00;25.40;;;;;;;-1.32;71.03;101607.59;84709;1329;22600;-78
2022/03/25 03:31:36;;;;;;;48.50;24.40;;;;;;;-1.34;70.99;101609.45;84706;1332;22609;-78
2022/03/25 03:33:47;;;;;;;45.30;25.60;;;;;;;-1.34;71.22;101610.79;84709;1332;23451;-72
2022/03/25 03:35:56;;;;;;;44.70;22.80;;;;;;;-1.35;71.20;101609.89;83927;1333;1003120;-72
2022/03/25 03:38:08;;;;;;;40.10;22.80;;;;;;;-1.37;71.19;101608.14;84659;1329;22567;-73
2022/03/25 03:40:17;;;;;;;45.60;24.50;;;;;;;-1.38;71.38;101607.77;84520;1329;237555;-74
2022/03/25 03:42:29;;;;;;;42.50;23.80;;;;;;;-1.37;71.39;101605.75;84685;1330;24358;-74
2022/03/25 03:44:38;;;;;;;43.40;24.60;;;;;;;-1.37;71.49;101609.34;84597;1328;23132;-78
2022/03/25 03:46:50;;;;;;;44.50;24.10;;;;;;;-1.36;71.51;101613.13;84671;1329;23957;-78
2022/03/25 03:49:00;;;;;;;42.00;23.80;;;;;;;-1.36;71.46;101610.56;84624;1329;22660;-73
2022/03/25 03:51:09;;;;;;;43.10;22.60;;;;;;;-1.36;71.35;101614.34;84669;1329;22556;-74
2022/03/25 03:53:20;;;;;;;38.90;22.60;;;;;;;-1.37;71.40;101613.42;84618;1331;22587;-76
2022/03/25 03:55:30;;;;;;;52.50;24.50;;;;;;;-1.40;71.41;101611.45;84692;1328;22629;-73
2022/03/25 03:57:41;;;;;;;40.20;24.30;;;;;;;-1.45;71.46;101607.72;84683;1329;26654;-72
2022/03/25 03:59:54;;;;;;;44.00;23.70;;;;;;;-1.48;71.48;101611.18;84648;1330;23893;-73
2022/03/25 04:02:03;;;;;;;40.90;23.00;;;;;;;-1.50;71.56;101610.11;84691;1332;22624;-74
2022/03/25 04:04:11;;;;;;;46.30;21.90;;;;;;;-1.50;71.62;101616.79;84615;1333;25680;-74
2022/03/25 04:06:23;;;;;;;41.40;22.60;;;;;;;-1.48;71.87;101618.22;84668;1329;22588;-74
2022/03/25 04:08:32;;;;;;;49.60;24.20;;;;;;;-1.47;71.81;101617.08;84635;1330;22616;-78
2022/03/25 04:10:40;;;;;;;43.30;24.30;;;;;;;-1.48;71.84;101622.16;84674;1328;22587;-78
2022/03/25 04:12:53;;;;;;;43.90;23.90;;;;;;;-1.47;71.84;101624.60;84611;1330;22675;-77
2022/03/25 04:15:01;;;;;;;47.50;23.80;;;;;;;-1.48;71.71;101622.67;84647;1331;22613;-74
2022/03/25 04:17:10;;;;;;;45.30;24.50;;;;;;;-1.45;71.75;101622.77;84683;1323;22849;-73
2022/03/25 04:19:18;;;;;;;45.10;25.10;;;;;;;-1.46;71.82;101624.27;84610;1333;24614;-76
2022/03/25 04:21:29;;;;;;;41.60;24.50;;;;;;;-1.47;71.83;101625.95;84679;1331;22591;-77
2022/03/25 04:23:38;;;;;;;44.10;23.90;;;;;;;-1.50;71.75;101625.52;84635;1330;22830;-74
2022/03/25 04:25:47;;;;;;;45.50;24.30;;;;;;;-1.51;71.82;101626.02;84695;1329;22842;-74
2022/03/25 04:28:01;;;;;;;46.90;24.50;;;;;;;-1.52;71.90;101628.20;84655;1324;22587;-72
2022/03/25 04:30:12;;;;;;;45.20;24.90;;;;;;;-1.55;71.85;101625.02;84689;1325;22646;-77
2022/03/25 04:32:23;;;;;;;46.60;23.10;;;;;;;-1.56;71.96;101623.63;84583;1334;22603;-77
2022/03/25 04:34:32;;;;;;;38.30;21.60;;;;;;;-1.55;72.03;101623.66;84646;1331;24437;-73
2022/03/25 04:36:40;;;;;;;39.40;22.20;;;;;;;-1.51;72.08;101627.39;84689;1331;22596;-73
2022/03/25 04:38:51;;;;;;;39.60;22.80;;;;;;;-1.49;72.13;101625.02;84711;1329;24834;-77
2022/03/25 04:41:03;;;;;;;45.20;24.70;;;;;;;-1.47;72.20;101624.41;84638;1329;24230;-77
2022/03/25 04:43:12;;;;;;;44.40;24.20;;;;;;;-1.47;72.07;101624.23;84695;1325;23058;-74
2022/03/25 04:45:21;;;;;;;42.50;23.00;;;;;;;-1.48;72.07;101623.37;84623;1329;22880;-73
2022/03/25 04:47:29;;;;;;;38.60;23.50;;;;;;;-1.47;72.28;101625.10;84677;1332;23972;-73
2022/03/25 04:49:41;;;;;;;46.20;24.90;;;;;;;-1.45;72.28;101626.72;84626;1329;22835;-73
2022/03/25 04:51:49;;;;;;;43.00;23.90;;;;;;;-1.42;72.13;101621.31;84685;1329;23973;-73
2022/03/25 04:54:01;;;;;;;43.80;23.20;;;;;;;-1.42;72.05;101628.70;84644;1331;22609;-73
2022/03/25 04:56:10;;;;;;;45.20;24.90;;;;;;;-1.39;72.16;101626.36;84628;1333;24214;-73
2022/03/25 04:58:19;;;;;;;46.80;24.30;;;;;;;-1.39;72.18;101626.39;84684;1332;22677;-77
2022/03/25 05:00:30;;;;;;;46.70;24.20;;;;;;;-1.37;72.52;101625.77;84688;1329;24349;-76
2022/03/25 05:02:39;;;;;;;43.80;23.50;;;;;;;-1.34;72.36;101628.74;84689;1331;23233;-77
2022/03/25 05:04:47;;;;;;;42.40;22.40;;;;;;;-1.31;72.41;101628.85;84641;1333;23996;-77
2022/03/25 05:06:55;;;;;;;38.80;23.00;;;;;;;-1.26;72.49;101630.71;84692;1328;24237;-77
2022/03/25 05:09:10;;;;;;;45.00;22.80;;;;;;;-1.21;72.43;101632.24;84655;1329;22922;-74
2022/03/25 05:11:21;;;;;;;39.60;22.70;;;;;;;-1.13;72.63;101629.05;84606;1330;22813;-73
2022/03/25 05:13:30;;;;;;;46.30;24.70;;;;;;;-0.93;72.62;101632.04;84685;1332;22587;-76
2022/03/25 05:15:39;;;;;;;52.30;26.20;;;;;;;-0.40;72.93;101626.65;84573;1334;22803;-78
2022/03/25 05:17:54;;;;;;;48.70;24.50;;;;;;;0.33;73.72;101631.78;84568;1332;22592;-77
2022/03/25 05:20:06;;;;;;;39.40;25.00;;;;;;;1.10;72.78;101625.59;84680;1329;22703;-77
2022/03/25 05:22:15;;;;;;;41.70;26.20;;;;;;;1.87;72.41;101625.70;84700;1325;22811;-78
2022/03/25 05:24:26;;;;;;;41.60;24.90;;;;;;;2.65;70.67;101621.45;84606;1329;22621;-73
2022/03/25 05:26:38;;;;;;;45.30;24.40;;;;;;;3.19;68.73;101615.98;84689;1332;22608;-74
2022/03/25 05:28:49;;;;;;;42.60;23.80;;;;;;;3.28;66.37;101620.04;84640;1333;22577;-77
2022/03/25 05:30:58;;;;;;;47.50;25.30;;;;;;;3.07;65.29;101623.06;84671;1331;24125;-77
2022/03/25 05:33:07;;;;;;;44.30;24.40;;;;;;;2.84;64.78;101627.39;84621;1330;22645;-74
2022/03/25 05:35:15;;;;;;;40.30;22.60;;;;;;;2.62;64.76;101630.88;84686;1332;22609;-73
2022/03/25 05:37:27;;;;;;;43.90;22.70;;;;;;;2.45;64.85;101629.41;84633;1331;22587;-73
2022/03/25 05:39:36;;;;;;;40.50;22.30;;;;;;;2.34;64.95;101627.35;84683;1329;22763;-79
2022/03/25 05:41:44;;;;;;;36.20;22.50;;;;;;;2.26;65.07;101624.98;84589;1333;22609;-77
2022/03/25 05:43:55;;;;;;;35.90;22.20;;;;;;;2.18;65.38;101631.56;84633;1330;22596;-76
2022/03/25 05:46:08;;;;;;;39.50;23.80;;;;;;;2.13;65.44;101627.52;84703;1330;22606;-75
2022/03/25 05:48:24;;;;;;;42.80;23.30;;;;;;;2.13;65.66;101625.28;84651;1333;22589;-73
2022/03/25 05:50:37;;;;;;;38.70;21.50;;;;;;;2.14;65.93;101631.85;84615;1328;22675;-72
2022/03/25 05:52:52;;;;;;;38.20;22.00;;;;;;;2.18;65.98;101631.22;84676;1327;22692;-73
2022/03/25 05:55:05;;;;;;;38.90;22.60;;;;;;;2.39;66.37;101631.91;84640;1328;22738;-73
2022/03/25 05:57:14;;;;;;;37.60;22.00;;;;;;;3.24;67.60;101626.52;84665;1329;22589;-73
2022/03/25 05:59:25;;;;;;;34.10;20.70;;;;;;;4.42;68.44;101624.39;84707;1330;22603;-73
2022/03/25 06:01:34;;;;;;;32.10;20.20;;;;;;;5.78;66.97;101620.88;84695;1329;25574;-77
2022/03/25 06:03:44;;;;;;;32.00;20.30;;;;;;;6.99;64.91;101621.31;84682;1332;26489;-74
2022/03/25 06:05:54;;;;;;;;;;;;;;;8.19;61.79;101616.84;84626;1333;22574;-74
2022/03/25 06:08:07;;;;;;;35.90;18.70;;;;;;;9.21;58.53;101611.27;84696;1329;24364;-76
2022/03/25 06:10:16;;;;;;;36.70;21.50;;;;;;;10.26;55.60;101608.17;84624;1333;23921;-77
2022/03/25 06:12:25;;;;;;;45.30;23.20;;;;;;;11.19;51.58;101605.39;84677;1329;22615;-77
2022/03/25 06:14:34;;;;;;;38.70;23.20;;;;;;;11.97;49.50;101604.89;84586;1334;22664;-76
2022/03/25 06:16:46;;;;;;;44.10;24.90;;;;;;;12.70;46.60;101600.40;84665;1332;22586;-78
2022/03/25 06:18:56;;;;;;;34.30;22.00;;;;;;;13.34;44.66;101599.12;84642;1325;22592;-72
2022/03/25 06:21:07;;;;;;;33.30;19.80;;;;;;;13.87;43.50;101598.02;84682;1329;24950;-74
2022/03/25 06:23:17;;;;;;;31.50;20.00;;;;;;;14.49;40.71;101601.09;84706;1328;22583;-77
2022/03/25 06:25:26;;;;;;;30.20;19.80;;;;;;;15.07;39.78;101596.00;84693;1328;22580;-76
2022/03/25 06:27:38;;;;;;;30.40;19.30;;;;;;;15.63;38.11;101598.97;84583;1334;22605;-77
2022/03/25 06:29:46;;;;;;;31.00;18.50;;;;;;;15.88;36.55;101599.74;84622;1328;22964;-74
2022/03/25 06:32:05;;;;;;;39.40;19.80;;;;;;;16.02;36.24;101601.11;84678;1330;22652;-74
2022/03/25 06:34:35;;;;;;;31.10;19.50;;;;;;;16.12;35.59;101604.92;84645;1329;22616;-73
2022/03/25 06:36:49;;;;;;;40.70;20.20;;;;;;;16.28;34.74;101601.79;84708;1330;24040;-73
2022/03/25 06:38:59;;;;;;;37.10;19.60;;;;;;;16.70;34.20;101604.25;84644;1333;22941;-77
2022/03/25 06:41:12;;;;;;;34.60;20.70;;;;;;;16.70;34.03;101604.58;84681;1330;24144;-77
2022/03/25 06:44:07;;;;;;;35.90;19.20;;;;;;;16.57;33.86;101608.14;84678;1333;22607;-77
2022/03/25 06:46:24;;;;;;;30.50;18.50;;;;;;;16.65;33.35;101609.70;84651;1332;24434;-77
2022/03/25 06:48:34;;;;;;;34.30;19.00;;;;;;;16.81;33.17;101606.40;84728;1329;22661;-77
2022/03/25 06:50:49;;;;;;;30.90;19.40;;;;;;;17.14;32.82;101609.70;84658;1320;22882;-77
2022/03/25 06:53:02;;;;;;;28.50;19.40;;;;;;;17.59;32.60;101605.09;84670;1327;22843;-75
2022/03/25 06:55:13;;;;;;;32.10;19.10;;;;;;;18.10;31.72;101611.64;84682;1332;24284;-72
2022/03/25 06:57:25;;;;;;;29.60;19.50;;;;;;;18.58;31.02;101609.04;84676;1324;23081;-75
2022/03/25 06:59:41;;;;;;;29.10;19.30;;;;;;;19.04;29.87;101603.11;84692;1332;22590;-73
2022/03/25 07:01:55;;;;;;;28.50;18.10;;;;;;;19.40;29.86;101601.30;84678;1328;22588;-73
2022/03/25 07:04:06;;;;;;;34.30;20.30;;;;;;;19.55;29.21;101602.39;84718;1329;22704;-73
2022/03/25 07:06:18;;;;;;;31.70;19.60;;;;;;;19.65;28.58;101602.27;84693;1329;22871;-73
2022/03/25 07:08:28;;;;;;;33.20;20.70;;;;;;;19.64;28.07;101606.91;84701;1332;22620;-72
2022/03/25 07:10:36;;;;;;;;;;;;;;;19.66;28.09;101607.71;84715;1331;22601;-73
2022/03/25 07:12:49;;;;;;;32.10;20.00;;;;;;;19.76;27.93;101610.10;84680;1329;22652;-73
2022/03/25 07:15:01;;;;;;;29.20;21.30;;;;;;;20.08;27.31;101609.74;84685;1330;23951;-73
2022/03/25 07:17:13;;;;;;;33.10;22.30;;;;;;;20.56;26.89;101601.89;84682;1329;22606;-73
2022/03/25 07:19:25;;;;;;;31.30;21.40;;;;;;;21.03;26.23;101600.81;84662;1329;25966;-77
2022/03/25 07:21:33;;;;;;;31.60;20.20;;;;;;;21.55;25.08;101602.86;84653;1330;22602;-78
2022/03/25 07:23:46;;;;;;;27.80;19.80;;;;;;;21.74;23.98;101601.84;84612;1333;25334;-73
2022/03/25 07:25:54;;;;;;;30.40;20.70;;;;;;;21.72;24.07;101606.00;84622;1329;22622;-76
2022/03/25 07:28:05;;;;;;;28.30;18.80;;;;;;;22.00;24.39;101612.19;84674;1330;22785;-73
2022/03/25 07:30:16;;;;;;;26.30;17.40;;;;;;;22.46;23.46;101609.33;84635;1331;24306;-73
2022/03/25 07:32:26;;;;;;;26.80;17.90;;;;;;;22.79;23.02;101615.02;84699;1329;25362;-74
2022/03/25 07:34:38;;;;;;;25.40;16.10;;;;;;;23.29;22.80;101612.02;84615;1329;22739;-74
2022/03/25 07:36:49;;;;;;;28.70;16.70;;;;;;;23.58;21.75;101615.77;84628;1328;24311;-73
2022/03/25 07:39:07;;;;;;;28.20;17.10;;;;;;;23.69;21.54;101612.15;84641;1330;25304;-73
2022/03/25 07:41:20;;;;;;;23.40;15.40;;;;;;;24.07;21.63;101612.40;84673;1328;22586;-73
2022/03/25 07:43:28;;;;;;;25.70;16.10;;;;;;;24.43;20.35;101609.18;84693;1328;22590;-75
2022/03/25 07:45:37;;;;;;;25.20;16.20;;;;;;;24.38;20.37;101607.58;84652;1329;24294;-75
2022/03/25 07:47:49;;;;;;;19.80;16.40;;;;;;;24.39;20.40;101610.02;84659;1324;22843;-77
2022/03/25 07:50:02;;;;;;;25.90;16.40;;;;;;;24.41;20.41;101606.59;84672;1328;27094;-77
2022/03/25 07:52:14;;;;;;;23.50;16.20;;;;;;;24.50;20.17;101601.44;84667;1331;22573;-77
2022/03/25 07:54:22;;;;;;;21.70;16.40;;;;;;;24.76;20.14;101604.64;84667;1323;22858;-74
2022/03/25 07:56:31;;;;;;;21.30;16.00;;;;;;;24.90;20.27;101601.36;84647;1329;23973;-73
2022/03/25 07:58:39;;;;;;;24.70;17.10;;;;;;;25.34;19.97;101605.00;84641;1332;22593;-74
2022/03/25 08:00:48;;;;;;;20.30;15.20;;;;;;;25.68;19.22;101605.98;84639;1329;24141;-72
2022/03/25 08:02:57;;;;;;;22.20;16.10;;;;;;;25.63;18.98;101606.80;84693;1329;22585;-74
2022/03/25 08:05:10;;;;;;;;;;;;;;;25.49;18.62;101604.89;84565;1332;25282;-73
2022/03/25 08:07:19;;;;;;;24.30;16.30;;;;;;;25.43;19.17;101610.55;84675;1330;22766;-72
2022/03/25 08:09:30;;;;;;;22.50;15.50;;;;;;;25.65;18.89;101606.44;84693;1329;22757;-74
2022/03/25 08:11:46;;;;;;;23.20;15.00;;;;;;;25.71;18.81;101606.27;84644;1329;25940;-73
2022/03/25 08:13:56;;;;;;;27.40;15.80;;;;;;;26.14;19.30;101615.91;84701;1324;22617;-74
2022/03/25 08:16:16;;;;;;;22.40;15.50;;;;;;;26.53;18.29;101618.08;84615;1330;22618;-74
2022/03/25 08:18:26;;;;;;;22.70;14.90;;;;;;;26.45;17.83;101611.91;84710;1325;22620;-74
2022/03/25 08:20:39;;;;;;;25.40;14.60;;;;;;;26.36;17.76;101614.27;84658;1329;22616;-74
2022/03/25 08:22:50;;;;;;;22.90;14.60;;;;;;;26.46;17.96;101613.98;84668;1329;22839;-74
2022/03/25 08:29:54;;;;;;;18.50;13.10;;;;;;;27.49;17.89;101601.40;84712;1329;22599;-76
2022/03/25 08:32:11;;;;;;;19.10;13.10;;;;;;;27.69;17.25;101604.06;84683;1328;22838;-77
2022/03/25 08:34:19;;;;;;;19.10;11.90;;;;;;;27.63;17.34;101605.36;84646;1332;22968;-76
2022/03/25 08:36:31;;;;;;;22.00;13.60;;;;;;;27.78;17.07;101606.71;84658;1330;24247;-76
2022/03/25 08:38:43;;;;;;;14.80;12.70;;;;;;;27.76;16.54;101607.15;84672;1331;22600;-74
2022/03/25 08:40:55;;;;;;;18.90;14.50;;;;;;;27.78;16.75;101602.56;84658;1329;22610;-74
2022/03/25 08:43:04;;;;;;;20.10;12.90;;;;;;;27.90;16.49;101602.70;84696;1328;22703;-75
2022/03/25 08:45:13;;;;;;;;;;;;;;;28.12;16.91;101600.70;84697;1327;23037;-75
2022/03/25 08:47:22;;;;;;;18.70;13.00;;;;;;;28.06;16.83;101603.89;84697;1329;25430;-74
2022/03/25 08:49:36;;;;;;;21.70;12.20;;;;;;;28.03;16.50;101600.21;84646;1329;22597;-76
2022/03/25 08:51:51;;;;;;;19.90;12.80;;;;;;;27.91;16.29;101603.70;84664;1329;22595;-75
2022/03/25 08:54:01;;;;;;;15.80;11.70;;;;;;;27.73;16.39;101601.02;84602;1333;25375;-75
2022/03/25 08:56:10;;;;;;;19.20;13.40;;;;;;;27.75;16.35;101597.39;84562;1332;22738;-76
2022/03/25 08:58:21;;;;;;;18.50;13.00;;;;;;;27.70;16.51;101596.05;84701;1329;22745;-74
2022/03/25 09:00:30;;;;;;;17.80;13.30;;;;;;;27.49;16.39;101594.38;84702;1328;24470;-75
2022/03/25 09:02:44;;;;;;;20.40;13.10;;;;;;;27.68;16.78;101591.63;84664;1328;22608;-77
2022/03/25 09:04:53;;;;;;;22.30;12.00;;;;;;;27.97;16.97;101588.43;84697;1329;23911;-73
2022/03/25 09:07:06;;;;;;;22.30;14.10;;;;;;;28.33;16.82;101589.05;84622;1329;22587;-74
2022/03/25 09:09:17;;;;;;;19.20;12.50;;;;;;;28.36;16.45;101586.06;84688;1329;25285;-74
2022/03/25 09:11:26;;;;;;;21.80;13.40;;;;;;;28.43;16.31;101586.14;84635;1325;22607;-73
2022/03/25 09:13:35;;;;;;;19.10;13.10;;;;;;;28.67;16.63;101585.96;84661;1329;22627;-75
2022/03/25 09:16:11;;;;;;;21.00;13.10;;;;;;;28.90;16.26;101581.66;84671;1332;22704;-74
2022/03/25 09:18:28;;;;;;;19.00;12.30;;;;;;;28.95;15.86;101579.56;84636;1329;22700;-74
2022/03/25 09:20:37;;;;;;;14.60;12.90;;;;;;;29.01;16.14;101581.14;84676;1324;23199;-74
2022/03/25 09:22:54;;;;;;;21.30;13.40;;;;;;;29.23;15.97;101578.01;84620;1333;24161;-74
2022/03/25 09:25:03;;;;;;;16.30;12.60;;;;;;;29.34;16.02;101576.95;84633;1330;22607;-77
2022/03/25 09:27:11;;;;;;;20.30;13.00;;;;;;;29.45;15.98;101578.20;84676;1329;23940;-77
2022/03/25 09:29:21;;;;;;;16.60;12.40;;;;;;;29.56;15.65;101577.55;84636;1329;22597;-75
2022/03/25 09:31:30;;;;;;;17.70;12.60;;;;;;;29.48;15.64;101576.30;84676;1328;22584;-75
2022/03/25 09:33:41;;;;;;;16.90;13.70;;;;;;;29.41;15.32;101573.09;84696;1329;22625;-83
2022/03/25 09:35:52;;;;;;;23.20;12.10;;;;;;;29.23;15.84;101565.44;84640;1329;22804;-82
2022/03/25 09:38:01;;;;;;;16.20;12.30;;;;;;;29.35;16.13;101565.02;84635;1328;24192;-82
2022/03/25 09:40:13;;;;;;;18.30;13.00;;;;;;;29.38;15.90;101560.63;84635;1326;25438;-84
2022/03/25 09:42:26;;;;;;;20.00;12.60;;;;;;;29.51;15.52;101560.38;84688;1328;23972;-83
2022/03/25 09:44:35;;;;;;;19.70;12.30;;;;;;;29.33;15.41;101556.78;84660;1328;22639;-83
2022/03/25 09:46:43;;;;;;;15.90;12.50;;;;;;;29.15;15.63;101556.96;84671;1327;25480;-81
2022/03/25 09:48:51;;;;;;;18.90;12.60;;;;;;;29.12;15.92;101553.79;84698;1328;22953;-81
2022/03/25 09:50:59;;;;;;;17.50;12.50;;;;;;;29.19;15.66;101557.50;84682;1329;22683;-81
2022/03/25 09:53:11;;;;;;;20.80;13.00;;;;;;;28.84;15.55;101554.73;84627;1329;22614;-74
2022/03/25 09:55:20;;;;;;;17.40;12.60;;;;;;;28.36;15.74;101557.09;84676;1327;23963;-74
2022/03/25 09:57:29;;;;;;;17.50;12.40;;;;;;;27.99;16.21;101554.84;84637;1329;22616;-74
2022/03/25 09:59:39;;;;;;;18.40;12.30;;;;;;;27.60;16.83;101555.44;84687;1328;24371;-81
2022/03/25 10:01:48;;;;;;;17.40;12.60;;;;;;;27.23;16.74;101553.77;84690;1328;23933;-83
2022/03/25 10:03:57;;;;;;;20.40;13.40;;;;;;;26.69;17.24;101551.50;84664;1332;22846;-76
2022/03/25 10:06:11;;;;;;;19.30;12.20;;;;;;;26.20;17.65;101549.67;84662;1330;25470;-76
2022/03/25 10:08:31;;;;;;;18.10;11.50;;;;;;;25.80;17.80;101552.49;84668;1328;25327;-84